createdAt,value
2018-09-07T00:01:14.756Z,19.54
2018-09-07T00:03:44.799Z,19.54
2018-09-07T00:06:15.937Z,19.53
2018-09-07T00:08:45.940Z,19.45
2018-09-07T00:11:15.776Z,19.40
2018-09-07T00:13:46.484Z,19.38
2018-09-07T00:16:16.315Z,19.30
2018-09-07T00:18:46.231Z,19.34
2018-09-07T00:21:15.831Z,19.38
2018-09-07T00:23:45.879Z,19.40
2018-09-07T00:26:15.780Z,19.36
2018-09-07T00:28:46.166Z,19.39
2018-09-07T00:31:16.350Z,19.39
2018-09-07T00:33:46.311Z,19.40
2018-09-07T00:36:16.155Z,19.27
2018-09-07T00:38:46.986Z,19.33
2018-09-07T00:41:17.132Z,19.28
2018-09-07T00:43:46.794Z,19.26
2018-09-07T00:46:17.510Z,19.26
2018-09-07T00:48:47.237Z,19.14
2018-09-07T00:51:16.842Z,19.03
2018-09-07T00:53:46.971Z,18.91
2018-09-07T00:56:17.897Z,18.87
2018-09-07T00:58:48.207Z,18.92
2018-09-07T01:01:19.174Z,18.84
2018-09-07T01:03:48.989Z,18.76
2018-09-07T01:06:18.673Z,18.85
2018-09-07T01:08:48.826Z,18.80
2018-09-07T01:11:18.561Z,18.86
2018-09-07T01:13:49.407Z,18.82
2018-09-07T01:16:19.552Z,18.89
2018-09-07T01:18:50.031Z,18.89
2018-09-07T01:21:20.083Z,18.83
2018-09-07T01:23:50.531Z,18.68
2018-09-07T01:26:21.537Z,18.77
2018-09-07T01:28:51.651Z,18.62
2018-09-07T01:31:22.049Z,18.59
2018-09-07T01:33:52.532Z,18.69
2018-09-07T01:36:22.968Z,18.68
2018-09-07T01:38:54.101Z,18.72
2018-09-07T01:41:24.557Z,18.82
2018-09-07T01:43:55.382Z,18.79
2018-09-07T01:46:27.025Z,18.75
2018-09-07T01:48:57.791Z,18.69
2018-09-07T01:51:27.872Z,18.77
2018-09-07T01:53:58.250Z,18.86
2018-09-07T01:56:28.028Z,18.88
2018-09-07T01:58:58.652Z,18.91
2018-09-07T02:01:29.636Z,18.86
2018-09-07T02:03:59.512Z,18.89
2018-09-07T02:06:30.033Z,18.85
2018-09-07T02:09:00.343Z,18.81
2018-09-07T02:11:31.655Z,18.71
2018-09-07T02:14:02.403Z,18.65
2018-09-07T02:16:32.307Z,18.80
2018-09-07T02:19:02.242Z,18.86
2018-09-07T02:21:33.935Z,18.86
2018-09-07T02:24:03.659Z,18.77
2018-09-07T02:26:33.613Z,18.85
2018-09-07T02:29:03.949Z,18.72
2018-09-07T02:31:34.158Z,18.68
2018-09-07T02:34:04.708Z,18.70
2018-09-07T02:36:35.855Z,18.56
2018-09-07T02:39:07.500Z,18.62
2018-09-07T02:41:37.440Z,18.57
2018-09-07T02:44:07.726Z,18.51
2018-09-07T02:46:37.566Z,18.53
2018-09-07T02:49:08.011Z,18.64
2018-09-07T02:51:37.911Z,18.74
2018-09-07T02:54:07.778Z,18.66
2018-09-07T02:56:38.117Z,18.63
2018-09-07T02:59:08.774Z,18.48
2018-09-07T03:01:38.926Z,18.51
2018-09-07T03:04:10.032Z,18.51
2018-09-07T03:06:40.816Z,18.52
2018-09-07T03:09:11.850Z,18.57
2018-09-07T03:11:42.602Z,18.67
2018-09-07T03:14:14.554Z,18.37
2018-09-07T03:16:44.311Z,18.79
2018-09-07T03:19:14.291Z,18.65
2018-09-07T03:21:44.236Z,18.73
2018-09-07T03:24:14.556Z,18.75
2018-09-07T03:26:44.974Z,18.73
2018-09-07T03:29:14.873Z,18.71
2018-09-07T03:31:44.620Z,18.80
2018-09-07T03:34:15.334Z,18.70
2018-09-07T03:36:45.001Z,18.78
2018-09-07T03:39:15.997Z,18.74
2018-09-07T03:41:45.868Z,18.62
2018-09-07T03:44:17.026Z,18.69
2018-09-07T03:46:46.910Z,18.74
2018-09-07T03:49:17.481Z,18.71
2018-09-07T03:51:47.166Z,18.71
2018-09-07T03:54:17.452Z,18.69
2018-09-07T03:56:47.217Z,18.70
2018-09-07T03:59:17.344Z,18.80
2018-09-07T04:01:46.777Z,18.81
2018-09-07T04:04:16.866Z,18.76
2018-09-07T04:06:46.776Z,18.69
2018-09-07T04:09:17.551Z,18.65
2018-09-07T04:11:48.886Z,18.75
2018-09-07T04:14:19.881Z,18.78
2018-09-07T04:16:49.908Z,18.80
2018-09-07T04:19:20.452Z,18.82
2018-09-07T04:21:50.410Z,18.77
2018-09-07T04:24:20.749Z,18.64
2018-09-07T04:26:50.216Z,18.68
2018-09-07T04:29:20.593Z,18.71
2018-09-07T04:31:50.334Z,18.85
2018-09-07T04:34:20.240Z,18.85
2018-09-07T04:36:50.026Z,18.83
2018-09-07T04:39:20.228Z,18.87
2018-09-07T04:41:49.774Z,18.90
2018-09-07T04:44:19.847Z,18.99
2018-09-07T04:46:49.671Z,19.04
2018-09-07T04:49:19.584Z,19.02
2018-09-07T04:51:49.506Z,18.99
2018-09-07T04:54:19.766Z,18.99
2018-09-07T04:56:49.275Z,19.01
2018-09-07T04:59:20.385Z,19.06
2018-09-07T05:01:49.803Z,18.93
2018-09-07T05:04:19.337Z,18.93
2018-09-07T05:06:49.270Z,18.94
2018-09-07T05:09:19.725Z,18.96
2018-09-07T05:11:49.574Z,19.03
2018-09-07T05:14:19.607Z,19.05
2018-09-07T05:16:49.023Z,19.11
2018-09-07T05:19:18.461Z,19.04
2018-09-07T05:21:48.290Z,19.01
2018-09-07T05:24:18.533Z,18.73
2018-09-07T05:26:47.984Z,18.96
2018-09-07T05:29:18.921Z,19.04
2018-09-07T05:31:48.376Z,19.05
2018-09-07T05:34:18.187Z,19.18
2018-09-07T05:36:48.455Z,19.07
2018-09-07T05:39:18.434Z,19.03
2018-09-07T05:41:48.279Z,19.08
2018-09-07T05:44:18.620Z,19.13
2018-09-07T05:46:48.384Z,19.12
2018-09-07T05:49:18.193Z,19.06
2018-09-07T05:51:48.034Z,19.04
2018-09-07T05:54:17.520Z,19.08
2018-09-07T05:56:46.941Z,19.15
2018-09-07T05:59:16.663Z,19.24
2018-09-07T06:01:46.485Z,19.16
2018-09-07T06:04:16.381Z,19.05
2018-09-07T06:06:46.163Z,19.12
2018-09-07T06:09:16.010Z,19.12
2018-09-07T06:11:45.747Z,19.07
2018-09-07T06:14:16.126Z,19.27
2018-09-07T06:16:45.799Z,19.49
2018-09-07T06:19:15.770Z,19.48
2018-09-07T06:21:46.225Z,19.45
2018-09-07T06:24:15.903Z,19.66
2018-09-07T06:26:45.662Z,19.76
2018-09-07T06:29:15.902Z,19.80
2018-09-07T06:31:46.093Z,19.86
2018-09-07T06:34:16.646Z,19.79
2018-09-07T06:36:46.775Z,19.93
2018-09-07T06:39:16.711Z,19.92
2018-09-07T06:41:46.430Z,20.01
2018-09-07T06:44:18.439Z,19.95
2018-09-07T06:46:49.998Z,20.22
2018-09-07T06:49:25.653Z,20.16
2018-09-07T06:51:58.985Z,20.11
2018-09-07T06:54:30.527Z,20.13
2018-09-07T06:57:06.978Z,20.19
2018-09-07T06:59:37.752Z,20.21
2018-09-07T07:02:16.190Z,20.33
2018-09-07T07:04:47.658Z,20.31
2018-09-07T07:07:19.364Z,20.40
2018-09-07T07:09:49.001Z,20.30
2018-09-07T07:12:20.412Z,20.21
2018-09-07T07:14:49.845Z,20.61
2018-09-07T07:17:20.108Z,20.66
2018-09-07T07:19:50.098Z,20.68
2018-09-07T07:22:20.309Z,20.61
2018-09-07T07:24:50.233Z,20.86
2018-09-07T07:27:20.771Z,21.06
2018-09-07T07:29:50.948Z,21.21
2018-09-07T07:32:29.739Z,21.03
2018-09-07T07:35:00.035Z,20.93
2018-09-07T07:37:29.747Z,21.11
2018-09-07T07:39:59.251Z,21.26
2018-09-07T07:42:30.666Z,21.30
2018-09-07T07:45:00.748Z,21.55
2018-09-07T07:47:32.590Z,21.60
2018-09-07T07:50:11.321Z,21.62
2018-09-07T07:52:44.737Z,21.46
2018-09-07T07:55:18.960Z,21.42
2018-09-07T07:57:49.583Z,21.66
2018-09-07T08:00:19.458Z,21.63
2018-09-07T08:02:49.104Z,21.89
2018-09-07T08:05:18.589Z,21.65
2018-09-07T08:07:48.926Z,21.34
2018-09-07T08:10:19.377Z,21.03
2018-09-07T08:12:50.047Z,21.02
2018-09-07T08:15:20.649Z,21.03
2018-09-07T08:17:54.385Z,20.93
2018-09-07T08:20:25.731Z,20.74
2018-09-07T08:22:55.681Z,20.72
2018-09-07T08:25:25.309Z,20.84
2018-09-07T08:27:57.376Z,20.85
2018-09-07T08:30:27.203Z,20.81
2018-09-07T08:32:58.836Z,20.82
2018-09-07T08:35:29.069Z,20.75
2018-09-07T08:37:58.850Z,20.74
2018-09-07T08:40:32.557Z,20.98
2018-09-07T08:43:03.328Z,21.14
2018-09-07T08:45:36.539Z,21.02
2018-09-07T08:48:10.892Z,20.85
2018-09-07T08:50:42.775Z,20.92
2018-09-07T08:53:17.638Z,21.12
2018-09-07T08:55:47.332Z,21.45
2018-09-07T08:58:19.412Z,21.53
2018-09-07T09:03:34.199Z,21.72
2018-09-07T09:06:05.103Z,21.81
2018-09-07T09:08:38.688Z,22.11
2018-09-07T09:11:12.112Z,22.24
2018-09-07T09:13:42.642Z,22.17
2018-09-07T09:16:16.536Z,22.43
2018-09-07T09:18:48.345Z,22.35
2018-09-07T09:21:19.462Z,22.15
2018-09-07T09:23:49.987Z,22.18
2018-09-07T09:26:20.501Z,22.47
2018-09-07T09:28:50.638Z,22.26
2018-09-07T09:31:20.551Z,22.48
2018-09-07T09:33:50.202Z,22.40
2018-09-07T09:36:21.552Z,22.65
2018-09-07T09:38:51.651Z,22.91
2018-09-07T09:41:22.090Z,22.86
2018-09-07T09:43:51.922Z,22.89
2018-09-07T09:46:21.552Z,23.02
2018-09-07T09:48:52.558Z,22.92
2018-09-07T09:51:22.309Z,22.73
2018-09-07T09:53:52.763Z,22.86
2018-09-07T09:56:22.757Z,22.95
2018-09-07T09:58:53.957Z,23.19
2018-09-07T10:01:29.721Z,23.08
2018-09-07T10:04:03.207Z,23.00
2018-09-07T10:06:33.336Z,22.82
2018-09-07T10:09:03.022Z,22.66
2018-09-07T10:11:33.858Z,23.14
2018-09-07T10:14:06.739Z,23.39
2018-09-07T10:16:37.137Z,23.26
2018-09-07T10:19:08.329Z,23.31
2018-09-07T10:21:38.489Z,23.02
2018-09-07T10:24:10.165Z,22.95
2018-09-07T10:26:41.949Z,22.91
2018-09-07T10:29:13.707Z,22.85
2018-09-07T10:31:44.130Z,22.81
2018-09-07T10:34:13.657Z,22.90
2018-09-07T10:36:45.477Z,22.78
2018-09-07T10:39:15.987Z,22.82
2018-09-07T10:41:46.148Z,23.22
2018-09-07T10:44:16.889Z,23.58
2018-09-07T10:46:48.741Z,23.57
2018-09-07T10:49:18.963Z,23.76
2018-09-07T10:51:49.878Z,24.04
2018-09-07T10:54:20.955Z,24.20
2018-09-07T10:56:50.617Z,23.90
2018-09-07T10:59:22.110Z,23.99
2018-09-07T11:01:52.348Z,24.01
2018-09-07T11:04:22.297Z,24.07
2018-09-07T11:06:53.454Z,23.68
2018-09-07T11:09:23.608Z,23.47
2018-09-07T11:11:54.385Z,23.37
2018-09-07T11:14:24.450Z,23.53
2018-09-07T11:16:56.904Z,23.51
2018-09-07T11:19:31.540Z,23.64
2018-09-07T11:22:05.762Z,23.78
2018-09-07T11:24:36.038Z,23.58
2018-09-07T11:27:07.003Z,23.50
2018-09-07T11:29:43.671Z,23.58
2018-09-07T11:32:14.777Z,23.52
2018-09-07T11:34:48.613Z,23.09
2018-09-07T11:37:21.394Z,23.13
2018-09-07T11:39:51.126Z,23.25
2018-09-07T11:42:23.330Z,23.16
2018-09-07T11:44:54.707Z,22.88
2018-09-07T11:47:26.333Z,22.86
2018-09-07T11:49:58.577Z,23.05
2018-09-07T11:52:32.060Z,23.18
2018-09-07T11:55:06.613Z,23.61
2018-09-07T11:57:39.608Z,24.17
2018-09-07T12:00:09.556Z,24.56
2018-09-07T12:02:40.503Z,24.49
2018-09-07T12:05:12.859Z,24.13
2018-09-07T12:07:43.378Z,24.20
2018-09-07T12:10:13.927Z,24.38
2018-09-07T12:12:44.695Z,24.33
2018-09-07T12:15:14.646Z,24.22
2018-09-07T12:17:45.481Z,24.23
2018-09-07T12:20:15.175Z,24.08
2018-09-07T12:22:45.783Z,24.07
2018-09-07T12:25:16.633Z,24.39
2018-09-07T12:27:47.227Z,24.74
2018-09-07T12:30:17.259Z,25.12
2018-09-07T12:32:50.095Z,25.32
2018-09-07T12:35:24.842Z,25.65
2018-09-07T12:37:55.925Z,25.83
2018-09-07T12:40:26.821Z,26.10
2018-09-07T12:42:57.056Z,26.07
2018-09-07T12:45:28.527Z,26.33
2018-09-07T12:47:59.449Z,26.45
2018-09-07T12:50:29.094Z,26.64
2018-09-07T12:52:58.951Z,26.86
2018-09-07T12:55:28.782Z,26.88
2018-09-07T12:57:59.661Z,27.01
2018-09-07T13:00:29.151Z,26.79
2018-09-07T13:02:59.264Z,26.67
2018-09-07T13:05:29.383Z,26.75
2018-09-07T13:08:01.568Z,26.60
2018-09-07T13:10:31.426Z,26.05
2018-09-07T13:13:01.136Z,25.49
2018-09-07T13:15:31.051Z,25.31
2018-09-07T13:18:01.764Z,25.11
2018-09-07T13:20:31.958Z,24.62
2018-09-07T13:23:01.845Z,23.95
2018-09-07T13:25:31.445Z,23.49
2018-09-07T13:28:01.041Z,22.74
2018-09-07T13:30:30.781Z,22.36
2018-09-07T13:33:02.434Z,22.15
2018-09-07T13:35:32.115Z,22.03
2018-09-07T13:38:03.513Z,21.89
2018-09-07T13:40:33.993Z,21.69
2018-09-07T13:43:03.650Z,21.53
2018-09-07T13:45:33.485Z,21.37
2018-09-07T13:48:03.857Z,21.36
2018-09-07T13:50:33.531Z,21.08
2018-09-07T13:53:03.916Z,20.85
2018-09-07T13:55:34.218Z,20.76
2018-09-07T13:58:04.467Z,20.65
2018-09-07T14:00:34.440Z,20.53
2018-09-07T14:03:04.029Z,20.34
2018-09-07T14:05:35.122Z,20.26
2018-09-07T14:08:05.252Z,20.21
2018-09-07T14:10:35.290Z,20.05
2018-09-07T14:13:05.472Z,20.06
2018-09-07T14:15:35.190Z,19.92
2018-09-07T14:18:06.433Z,19.92
2018-09-07T14:20:36.557Z,19.77
2018-09-07T14:23:06.386Z,19.70
2018-09-07T14:25:36.355Z,19.72
2018-09-07T14:28:07.850Z,19.83
2018-09-07T14:30:40.672Z,19.90
2018-09-07T14:33:12.988Z,19.83
2018-09-07T14:35:45.328Z,19.85
2018-09-07T14:38:15.799Z,19.87
2018-09-07T14:40:46.837Z,19.92
2018-09-07T14:43:19.440Z,19.91
2018-09-07T14:45:49.388Z,20.16
2018-09-07T14:48:20.040Z,20.29
2018-09-07T14:50:49.689Z,20.41
2018-09-07T14:53:22.542Z,20.64
2018-09-07T14:55:53.779Z,20.81
2018-09-07T14:58:24.902Z,20.91
2018-09-07T15:00:54.907Z,20.97
2018-09-07T15:03:25.000Z,21.04
2018-09-07T15:05:55.505Z,21.13
2018-09-07T15:08:26.771Z,21.23
2018-09-07T15:10:57.655Z,21.50
2018-09-07T15:13:31.199Z,21.71
2018-09-07T15:16:02.735Z,21.89
2018-09-07T15:18:35.058Z,22.31
2018-09-07T15:21:05.355Z,22.73
2018-09-07T15:23:36.748Z,23.20
2018-09-07T15:26:08.898Z,23.65
2018-09-07T15:28:39.488Z,24.04
2018-09-07T15:31:11.565Z,24.42
2018-09-07T15:33:43.061Z,24.52
2018-09-07T15:36:17.292Z,24.27
2018-09-07T15:38:50.906Z,23.97
2018-09-07T15:41:27.906Z,23.51
2018-09-07T15:44:06.951Z,23.49
2018-09-07T15:46:39.009Z,23.54
2018-09-07T15:49:13.410Z,23.49
2018-09-07T15:51:48.836Z,23.25
2018-09-07T15:54:21.521Z,23.03
2018-09-07T15:56:53.327Z,22.90
2018-09-07T15:59:25.698Z,22.72
2018-09-07T16:01:58.407Z,22.51
2018-09-07T16:04:34.165Z,22.21
2018-09-07T16:07:06.070Z,21.99
2018-09-07T16:09:39.849Z,21.73
2018-09-07T16:12:15.275Z,21.61
2018-09-07T16:14:51.723Z,21.51
2018-09-07T16:17:23.583Z,21.48
2018-09-07T16:19:55.139Z,21.39
2018-09-07T16:22:26.585Z,21.25
2018-09-07T16:24:59.744Z,21.08
2018-09-07T16:27:32.796Z,21.02
2018-09-07T16:30:03.748Z,20.96
2018-09-07T16:32:36.772Z,21.09
2018-09-07T16:35:07.845Z,21.08
2018-09-07T16:37:38.923Z,21.06
2018-09-07T16:40:11.404Z,21.05
2018-09-07T16:42:43.251Z,21.08
2018-09-07T16:45:14.568Z,20.95
2018-09-07T16:47:44.727Z,20.91
2018-09-07T16:50:15.596Z,20.84
2018-09-07T16:52:52.074Z,20.87
2018-09-07T16:55:22.903Z,20.85
2018-09-07T16:57:55.188Z,20.90
2018-09-07T17:00:27.328Z,20.91
2018-09-07T17:02:58.060Z,20.78
2018-09-07T17:05:29.494Z,20.89
2018-09-07T17:08:00.878Z,20.82
2018-09-07T17:10:35.176Z,20.90
2018-09-07T17:13:06.717Z,20.89
2018-09-07T17:15:39.256Z,21.04
2018-09-07T17:18:10.179Z,20.75
2018-09-07T17:20:40.374Z,20.79
2018-09-07T17:23:12.021Z,20.79
2018-09-07T17:25:42.969Z,20.81
2018-09-07T17:28:14.053Z,20.68
2018-09-07T17:30:46.316Z,20.70
2018-09-07T17:33:16.370Z,20.57
2018-09-07T17:35:50.992Z,20.66
2018-09-07T17:38:24.092Z,20.60
2018-09-07T17:40:54.494Z,20.64
2018-09-07T17:43:25.816Z,20.73
2018-09-07T17:46:01.700Z,20.64
2018-09-07T17:48:32.135Z,20.51
2018-09-07T17:51:04.011Z,20.50
2018-09-07T17:53:36.588Z,20.45
2018-09-07T17:56:07.984Z,20.47
2018-09-07T17:58:40.560Z,20.45
2018-09-07T18:01:12.195Z,20.47
2018-09-07T18:03:44.242Z,20.44
2018-09-07T18:06:19.372Z,20.35
2018-09-07T18:08:55.313Z,20.24
2018-09-07T18:11:26.274Z,20.15
2018-09-07T18:13:56.599Z,20.11
2018-09-07T18:16:27.466Z,20.12
2018-09-07T18:19:02.238Z,20.08
2018-09-07T18:21:37.996Z,19.92
2018-09-07T18:24:10.269Z,20.09
2018-09-07T18:26:48.584Z,20.04
2018-09-07T18:29:20.939Z,19.88
2018-09-07T18:31:51.830Z,19.81
2018-09-07T18:34:24.770Z,19.76
2018-09-07T18:36:55.860Z,19.74
2018-09-07T18:39:28.344Z,19.80
2018-09-07T18:42:03.810Z,19.77
2018-09-07T18:44:34.005Z,19.78
2018-09-07T18:47:07.794Z,19.81
2018-09-07T18:49:38.059Z,19.77
2018-09-07T18:52:08.564Z,19.69
2018-09-07T18:54:40.185Z,19.79
2018-09-07T18:57:19.859Z,19.83
2018-09-07T18:59:52.091Z,19.85
2018-09-07T19:02:23.031Z,19.94
2018-09-07T19:04:54.728Z,19.92
2018-09-07T19:07:24.734Z,19.88
2018-09-07T19:09:55.154Z,19.83
2018-09-07T19:12:26.925Z,19.73
2018-09-07T19:14:57.216Z,19.65
2018-09-07T19:17:30.460Z,19.40
2018-09-07T19:20:03.067Z,19.17
2018-09-07T19:22:34.369Z,19.03
2018-09-07T19:25:04.871Z,18.97
2018-09-07T19:27:34.698Z,18.89
2018-09-07T19:30:06.273Z,18.88
2018-09-07T19:32:36.103Z,18.66
2018-09-07T19:35:18.178Z,18.63
2018-09-07T19:37:50.085Z,18.54
2018-09-07T19:40:20.244Z,18.31
2018-09-07T19:42:50.580Z,18.33
2018-09-07T19:45:20.444Z,18.35
2018-09-07T19:47:53.989Z,18.30
2018-09-07T19:50:25.217Z,18.16
2018-09-07T19:52:55.786Z,18.28
2018-09-07T19:55:26.877Z,18.10
2018-09-07T19:57:56.696Z,18.04
2018-09-07T20:00:27.026Z,18.08
2018-09-07T20:02:59.065Z,17.97
2018-09-07T20:05:28.843Z,17.99
2018-09-07T20:07:59.417Z,17.97
2018-09-07T20:10:30.342Z,17.90
2018-09-07T20:13:00.095Z,17.82
2018-09-07T20:15:32.072Z,17.78
2018-09-07T20:18:03.793Z,17.63
2018-09-07T20:20:33.915Z,17.66
2018-09-07T20:23:03.579Z,17.63
2018-09-07T20:25:36.918Z,17.57
2018-09-07T20:28:08.944Z,17.60
2018-09-07T20:30:46.180Z,17.57
2018-09-07T20:33:20.389Z,17.48
2018-09-07T20:35:51.436Z,17.48
2018-09-07T20:38:23.429Z,17.47
2018-09-07T20:40:57.360Z,17.40
2018-09-07T20:43:28.690Z,17.41
2018-09-07T20:45:59.198Z,17.39
2018-09-07T20:48:29.398Z,17.34
2018-09-07T20:50:59.216Z,17.30
2018-09-07T20:53:29.230Z,17.27
2018-09-07T20:55:59.541Z,17.27
2018-09-07T20:58:29.210Z,17.21
2018-09-07T21:00:59.934Z,17.25
2018-09-07T21:03:35.154Z,17.08
2018-09-07T21:06:11.670Z,17.01
2018-09-07T21:08:48.220Z,17.00
2018-09-07T21:11:20.772Z,16.97
2018-09-07T21:13:52.554Z,16.80
2018-09-07T21:16:24.155Z,16.94
2018-09-07T21:19:06.373Z,16.83
2018-09-07T21:21:39.130Z,16.82
2018-09-07T21:24:10.613Z,16.81
2018-09-07T21:26:40.773Z,16.74
2018-09-07T21:29:14.237Z,16.69
2018-09-07T21:31:45.964Z,16.72
2018-09-07T21:34:16.479Z,16.66
2018-09-07T21:36:47.403Z,16.43
2018-09-07T21:39:17.172Z,16.59
2018-09-07T21:41:47.183Z,16.47
2018-09-07T21:44:16.865Z,16.38
2018-09-07T21:46:50.202Z,16.25
2018-09-07T21:49:20.215Z,16.22
2018-09-07T21:51:50.442Z,16.31
2018-09-07T21:54:23.111Z,16.30
2018-09-07T21:56:53.854Z,16.17
2018-09-07T21:59:23.682Z,16.08
2018-09-07T22:01:54.401Z,16.15
2018-09-07T22:04:26.228Z,16.18
2018-09-07T22:07:00.858Z,16.21
2018-09-07T22:09:35.939Z,16.08
2018-09-07T22:12:08.277Z,16.03
2018-09-07T22:14:38.879Z,15.98
2018-09-07T22:17:11.859Z,15.99
2018-09-07T22:19:46.150Z,16.05
2018-09-07T22:22:16.337Z,16.08
2018-09-07T22:24:55.135Z,16.13
2018-09-07T22:27:26.699Z,16.10
2018-09-07T22:30:03.821Z,16.10
2018-09-07T22:32:36.104Z,16.07
2018-09-07T22:35:05.982Z,16.08
2018-09-07T22:37:35.835Z,16.02
2018-09-07T22:40:07.432Z,15.96
2018-09-07T22:42:42.125Z,15.98
2018-09-07T22:45:12.607Z,15.97
2018-09-07T22:47:42.169Z,15.78
2018-09-07T22:50:12.525Z,15.80
2018-09-07T22:52:42.738Z,15.76
2018-09-07T22:55:13.173Z,15.80
2018-09-07T22:57:42.927Z,15.78
2018-09-07T23:00:12.741Z,15.72
2018-09-07T23:02:42.644Z,15.77
2018-09-07T23:05:14.162Z,15.75
2018-09-07T23:07:43.814Z,15.69
2018-09-07T23:10:13.320Z,15.68
2018-09-07T23:12:43.181Z,15.58
2018-09-07T23:15:13.056Z,15.53
2018-09-07T23:17:43.023Z,15.47
2018-09-07T23:20:12.847Z,15.46
2018-09-07T23:22:42.332Z,15.53
2018-09-07T23:25:12.561Z,15.45
2018-09-07T23:27:42.169Z,15.48
2018-09-07T23:30:12.670Z,15.51
2018-09-07T23:32:42.671Z,15.48
2018-09-07T23:35:12.368Z,15.46
2018-09-07T23:37:42.090Z,15.37
2018-09-07T23:40:12.113Z,15.34
2018-09-07T23:42:41.801Z,15.33
2018-09-07T23:45:12.638Z,15.32
2018-09-07T23:47:42.484Z,15.24
2018-09-07T23:50:12.766Z,15.28
2018-09-07T23:52:43.049Z,15.29
2018-09-07T23:55:12.772Z,15.29
2018-09-07T23:57:42.723Z,15.10
